createdAt,value
2023-01-04T00:01:18.736Z,4.90
2023-01-04T00:06:20.598Z,4.95
2023-01-04T00:11:24.015Z,5.07
2023-01-04T00:16:27.936Z,4.82
2023-01-04T00:21:31.303Z,4.82
2023-01-04T00:26:35.076Z,5.10
2023-01-04T00:31:36.904Z,5.40
2023-01-04T00:36:38.852Z,5.15
2023-01-04T00:42:04.463Z,5.15
2023-01-04T00:47:06.237Z,5.57
2023-01-04T00:52:08.340Z,5.18
2023-01-04T00:57:10.005Z,5.68
2023-01-04T01:02:11.861Z,4.97
2023-01-04T01:07:13.727Z,5.32
2023-01-04T01:12:15.414Z,6.28
2023-01-04T01:17:17.155Z,5.20
2023-01-04T01:22:19.075Z,5.80
2023-01-04T01:27:20.754Z,5.38
2023-01-04T01:32:22.421Z,5.57
2023-01-04T01:37:24.141Z,5.32
2023-01-04T01:42:26.046Z,5.07
2023-01-04T01:47:56.137Z,5.47
2023-01-04T01:53:00.576Z,5.57
2023-01-04T01:58:03.879Z,5.70
2023-01-04T02:03:30.108Z,5.82
2023-01-04T02:08:32.356Z,6.50
2023-01-04T02:13:55.882Z,5.97
2023-01-04T02:19:03.459Z,5.75
2023-01-04T02:24:13.954Z,5.63
2023-01-04T02:29:52.273Z,5.78
2023-01-04T02:35:14.330Z,5.55
2023-01-04T02:40:37.188Z,5.45
2023-01-04T02:45:48.573Z,5.47
2023-01-04T02:50:51.972Z,5.05
2023-01-04T02:56:05.763Z,5.60
2023-01-04T03:02:10.887Z,5.60
2023-01-04T03:07:32.502Z,4.90
2023-01-04T03:12:44.546Z,5.32
2023-01-04T03:17:52.467Z,5.22
2023-01-04T03:23:26.040Z,5.35
2023-01-04T03:28:51.615Z,4.72
2023-01-04T03:34:12.003Z,4.97
2023-01-04T03:40:00.407Z,5.43
2023-01-04T03:45:32.531Z,4.93
2023-01-04T03:50:42.351Z,4.82
2023-01-04T03:55:45.476Z,4.82
2023-01-04T04:00:47.676Z,4.32
2023-01-04T04:06:08.144Z,5.32
2023-01-04T04:11:28.510Z,4.35
2023-01-04T04:16:30.357Z,4.75
2023-01-04T04:21:32.204Z,4.75
2023-01-04T04:26:34.038Z,4.15
2023-01-04T04:31:35.896Z,4.38
2023-01-04T04:36:37.841Z,4.18
2023-01-04T04:41:41.578Z,4.22
2023-01-04T04:46:44.523Z,4.10
2023-01-04T04:51:46.506Z,4.28
2023-01-04T04:56:49.561Z,3.72
2023-01-04T05:01:51.653Z,3.80
2023-01-04T05:06:53.508Z,3.72
2023-01-04T05:12:13.624Z,3.42
2023-01-04T05:17:15.299Z,2.95
2023-01-04T05:22:17.000Z,3.17
2023-01-04T05:27:18.692Z,2.90
2023-01-04T05:32:20.497Z,3.60
2023-01-04T05:37:22.542Z,3.10
2023-01-04T05:42:28.197Z,2.78
2023-01-04T05:47:30.306Z,3.58
2023-01-04T05:52:32.003Z,3.53
2023-01-04T05:57:33.763Z,3.40
2023-01-04T06:02:35.643Z,3.55
2023-01-04T06:07:38.653Z,3.50
2023-01-04T06:12:41.024Z,3.40
2023-01-04T06:17:42.722Z,3.60
2023-01-04T06:22:44.642Z,3.20
2023-01-04T06:27:46.386Z,3.35
2023-01-04T06:32:49.299Z,3.65
2023-01-04T06:37:51.187Z,3.47
2023-01-04T06:42:52.946Z,3.45
2023-01-04T06:47:54.721Z,3.67
2023-01-04T06:52:56.428Z,3.97
2023-01-04T06:57:59.725Z,4.00
2023-01-04T07:03:14.744Z,4.20
2023-01-04T07:08:17.731Z,4.60
2023-01-04T07:13:19.382Z,4.32
2023-01-04T07:18:21.439Z,4.72
2023-01-04T07:23:23.275Z,4.90
2023-01-04T07:28:43.706Z,4.18
2023-01-04T07:33:48.569Z,4.50
2023-01-04T07:38:50.317Z,4.65
2023-01-04T07:43:52.160Z,4.07
2023-01-04T07:48:54.030Z,4.57
2023-01-04T07:53:55.765Z,4.15
2023-01-04T07:58:59.263Z,3.53
2023-01-04T08:04:01.250Z,3.90
2023-01-04T08:09:03.935Z,4.10
2023-01-04T08:14:05.668Z,3.58
2023-01-04T08:19:08.788Z,2.97
2023-01-04T08:24:15.782Z,3.30
2023-01-04T08:29:17.533Z,3.05
2023-01-04T08:34:19.263Z,3.10
2023-01-04T08:39:21.788Z,2.90
2023-01-04T08:44:25.205Z,2.65
2023-01-04T08:49:26.939Z,2.53
2023-01-04T08:54:28.667Z,2.65
2023-01-04T08:59:30.434Z,2.97
2023-01-04T09:04:32.266Z,2.95
2023-01-04T09:09:33.999Z,3.00
2023-01-04T09:14:35.716Z,2.40
2023-01-04T09:19:37.421Z,2.45
2023-01-04T09:24:39.219Z,2.22
2023-01-04T09:29:41.464Z,2.00
2023-01-04T09:34:43.707Z,2.10
2023-01-04T09:39:47.220Z,1.92
2023-01-04T09:45:23.145Z,1.73
2023-01-04T09:50:31.809Z,1.63
2023-01-04T09:56:08.912Z,2.20
2023-01-04T10:01:26.362Z,1.45
2023-01-04T10:06:28.758Z,1.20
2023-01-04T10:11:49.563Z,1.15
2023-01-04T10:18:13.623Z,1.30
2023-01-04T10:23:15.593Z,1.23
2023-01-04T10:28:39.368Z,1.27
2023-01-04T10:33:50.048Z,1.60
2023-01-04T10:39:19.553Z,1.60
2023-01-04T10:44:39.913Z,1.73
2023-01-04T10:49:49.825Z,1.70
2023-01-04T10:55:09.475Z,1.70
2023-01-04T11:00:23.406Z,1.50
2023-01-04T11:05:46.591Z,1.45
2023-01-04T11:10:57.136Z,1.30
2023-01-04T11:16:01.407Z,1.48
2023-01-04T11:21:08.417Z,1.42
2023-01-04T11:26:13.350Z,1.10
2023-01-04T11:31:44.028Z,1.30
2023-01-04T11:36:47.582Z,1.17
2023-01-04T11:42:04.480Z,1.60
2023-01-04T11:47:10.221Z,1.70
2023-01-04T19:00:30.154Z,0.93
2023-01-04T19:05:31.922Z,0.73
2023-01-04T19:10:33.701Z,0.70
2023-01-04T19:15:35.617Z,0.40
2023-01-04T19:20:40.166Z,0.73
2023-01-04T19:25:42.078Z,0.50
2023-01-04T19:30:44.358Z,0.40
2023-01-04T19:35:47.379Z,0.52
2023-01-04T19:40:58.240Z,0.50
2023-01-04T19:46:00.310Z,0.60
2023-01-04T19:51:10.588Z,0.50
2023-01-04T19:56:14.240Z,0.50
2023-01-04T20:01:18.334Z,0.60
2023-01-04T20:06:20.625Z,0.50
2023-01-04T20:11:22.398Z,0.50
2023-01-04T20:16:24.123Z,0.60
2023-01-04T20:21:25.966Z,0.70
2023-01-04T20:26:28.181Z,0.70
2023-01-04T20:31:31.104Z,0.57
2023-01-04T20:36:33.532Z,0.50
2023-01-04T20:41:35.246Z,0.70
2023-01-04T20:46:37.114Z,0.40
2023-01-04T20:51:38.851Z,0.50
2023-01-04T20:56:41.083Z,0.60
2023-01-04T21:01:43.075Z,0.40
2023-01-04T21:06:45.032Z,0.47
2023-01-04T21:11:46.705Z,0.40
2023-01-04T21:16:48.389Z,0.30
2023-01-04T21:21:50.090Z,0.40
2023-01-04T21:26:51.759Z,0.32
2023-01-04T21:31:54.577Z,0.28
2023-01-04T21:36:56.266Z,0.30
2023-01-04T21:41:58.078Z,0.30
2023-01-04T21:46:59.818Z,0.65
2023-01-04T21:52:01.536Z,0.43
2023-01-04T21:57:03.451Z,0.30
2023-01-04T22:02:05.359Z,0.60
2023-01-04T22:07:07.157Z,0.80
2023-01-04T22:12:09.104Z,0.70
2023-01-04T22:17:10.935Z,0.80
2023-01-04T22:22:12.621Z,0.80
2023-01-04T22:27:14.347Z,0.98
2023-01-04T22:32:16.013Z,1.00
2023-01-04T22:37:17.820Z,0.95
2023-01-04T22:42:19.507Z,0.95
2023-01-04T22:47:21.193Z,1.17
2023-01-04T22:52:23.020Z,1.30
2023-01-04T22:57:24.771Z,1.30
2023-01-04T23:02:26.537Z,1.15
2023-01-04T23:07:28.360Z,1.02
2023-01-04T23:12:30.264Z,1.13
2023-01-04T23:17:31.979Z,1.10
2023-01-04T23:22:33.663Z,0.98
2023-01-04T23:27:35.405Z,1.05
2023-01-04T23:32:37.111Z,1.23
2023-01-04T23:37:38.768Z,1.30
2023-01-04T23:42:40.421Z,1.40
2023-01-04T23:47:42.088Z,1.10
2023-01-04T23:52:43.952Z,1.30
2023-01-04T23:57:45.658Z,1.27
